createdAt,value
2019-04-20T00:00:57.814Z,9.23
2019-04-20T00:03:30.979Z,9.21
2019-04-20T00:05:55.468Z,9.18
2019-04-20T00:08:27.834Z,9.16
2019-04-20T00:11:02.665Z,9.14
2019-04-20T00:13:38.380Z,9.09
2019-04-20T00:15:55.809Z,9.07
2019-04-20T00:18:26.861Z,9.05
2019-04-20T00:21:00.264Z,9.03
2019-04-20T00:23:33.434Z,9.00
2019-04-20T00:26:14.824Z,8.96
2019-04-20T00:28:57.173Z,8.90
2019-04-20T00:31:25.671Z,8.89
2019-04-20T00:33:48.209Z,9.07
2019-04-20T00:36:07.402Z,8.85
2019-04-20T00:38:45.288Z,8.80
2019-04-20T00:41:10.122Z,8.79
2019-04-20T00:43:39.142Z,8.75
2019-04-20T00:46:14.839Z,8.73
2019-04-20T00:48:49.756Z,8.70
2019-04-20T00:51:26.248Z,8.65
2019-04-20T00:53:42.552Z,8.64
2019-04-20T00:56:07.794Z,8.61
2019-04-20T00:58:50.775Z,8.59
2019-04-20T01:01:27.466Z,8.56
2019-04-20T01:03:52.692Z,8.52
2019-04-20T01:06:31.741Z,8.52
2019-04-20T01:08:46.394Z,8.71
2019-04-20T01:11:17.600Z,8.45
2019-04-20T01:13:51.995Z,8.40
2019-04-20T01:16:25.283Z,8.40
2019-04-20T01:18:47.242Z,8.36
2019-04-20T01:21:20.317Z,8.31
2019-04-20T01:23:51.240Z,8.31
2019-04-20T01:26:19.158Z,8.29
2019-04-20T01:28:58.247Z,8.25
2019-04-20T01:31:27.286Z,8.25
2019-04-20T01:33:55.098Z,8.21
2019-04-20T01:36:36.867Z,8.19
2019-04-20T01:38:58.972Z,8.16
2019-04-20T01:41:18.263Z,8.15
2019-04-20T01:43:48.003Z,8.10
2019-04-20T01:46:20.681Z,8.06
2019-04-20T01:48:48.168Z,8.04
2019-04-20T01:51:22.810Z,8.02
2019-04-20T01:54:06.676Z,8.00
2019-04-20T01:56:37.311Z,7.96
2019-04-20T01:59:10.727Z,7.91
2019-04-20T02:01:42.487Z,7.89
2019-04-20T02:04:25.465Z,7.86
2019-04-20T02:06:53.459Z,7.76
2019-04-20T02:09:22.214Z,7.74
2019-04-20T02:11:50.858Z,7.95
2019-04-20T02:14:24.270Z,7.71
2019-04-20T02:16:53.051Z,7.69
2019-04-20T02:19:30.688Z,7.63
2019-04-20T02:22:03.816Z,7.60
2019-04-20T02:24:19.511Z,7.60
2019-04-20T02:26:50.061Z,7.57
2019-04-20T02:29:39.890Z,7.53
2019-04-20T02:32:23.810Z,7.53
2019-04-20T02:34:56.785Z,7.49
2019-04-20T02:37:55.121Z,7.45
2019-04-20T02:40:12.751Z,7.40
2019-04-20T02:42:44.820Z,7.34
2019-04-20T02:45:10.442Z,7.35
2019-04-20T02:52:38.053Z,7.29
2019-04-20T02:55:10.863Z,7.24
2019-04-20T02:57:43.728Z,7.21
2019-04-20T03:00:05.448Z,7.19
2019-04-20T03:02:18.137Z,7.16
2019-04-20T03:04:42.514Z,7.15
2019-04-20T03:07:15.362Z,7.10
2019-04-20T03:09:50.522Z,7.09
2019-04-20T03:12:30.349Z,7.05
2019-04-20T03:14:47.809Z,7.23
2019-04-20T03:17:27.262Z,6.99
2019-04-20T03:19:47.794Z,6.98
2019-04-20T03:22:35.021Z,6.94
2019-04-20T03:24:59.736Z,6.92
2019-04-20T03:27:25.116Z,6.86
2019-04-20T03:30:07.150Z,6.84
2019-04-20T03:35:17.433Z,6.81
2019-04-20T03:37:36.430Z,6.81
2019-04-20T03:39:58.032Z,6.82
2019-04-20T03:42:16.013Z,6.84
2019-04-20T03:44:55.028Z,6.81
2019-04-20T03:47:29.351Z,6.78
2019-04-20T03:50:06.062Z,6.78
2019-04-20T03:52:40.368Z,6.79
2019-04-20T03:55:26.234Z,6.76
2019-04-20T03:58:04.494Z,6.74
2019-04-20T04:00:43.261Z,6.69
2019-04-20T04:03:20.260Z,6.67
2019-04-20T04:05:48.006Z,6.60
2019-04-20T04:08:14.943Z,6.61
2019-04-20T04:10:54.763Z,6.57
2019-04-20T04:13:16.886Z,6.56
2019-04-20T04:15:51.913Z,6.54
2019-04-20T04:18:26.106Z,6.50
2019-04-20T04:20:54.109Z,6.52
2019-04-20T04:23:37.847Z,6.50
2019-04-20T04:26:15.013Z,6.49
2019-04-20T04:28:37.412Z,6.49
2019-04-20T04:31:09.469Z,6.50
2019-04-20T04:33:51.968Z,6.49
2019-04-20T04:36:08.915Z,6.48
2019-04-20T04:38:44.633Z,6.49
2019-04-20T04:41:16.403Z,6.49
2019-04-20T04:43:39.763Z,6.47
2019-04-20T04:45:51.329Z,6.47
2019-04-20T04:48:27.653Z,6.48
2019-04-20T04:50:56.461Z,6.48
2019-04-20T04:53:30.298Z,6.53
2019-04-20T04:55:58.533Z,6.54
2019-04-20T04:58:21.601Z,6.53
2019-04-20T05:00:51.503Z,6.57
2019-04-20T05:03:38.789Z,6.60
2019-04-20T05:06:16.728Z,6.61
2019-04-20T05:08:31.680Z,6.65
2019-04-20T05:10:54.213Z,6.65
2019-04-20T05:13:27.300Z,6.68
2019-04-20T05:16:07.581Z,6.75
2019-04-20T05:18:44.843Z,6.77
2019-04-20T05:21:15.301Z,6.83
2019-04-20T05:23:37.874Z,6.88
2019-04-20T05:26:25.403Z,6.92
2019-04-20T05:28:46.105Z,6.97
2019-04-20T05:31:09.581Z,7.02
2019-04-20T05:34:02.356Z,7.10
2019-04-20T05:36:23.339Z,7.17
2019-04-20T05:39:02.538Z,7.24
2019-04-20T05:41:21.879Z,7.33
2019-04-20T05:43:56.543Z,7.43
2019-04-20T05:46:42.449Z,7.50
2019-04-20T05:49:02.792Z,7.58
2019-04-20T05:51:37.982Z,7.67
2019-04-20T05:54:05.700Z,7.76
2019-04-20T05:56:37.305Z,7.86
2019-04-20T05:58:59.862Z,7.94
2019-04-20T06:01:31.817Z,8.04
2019-04-20T06:03:57.890Z,8.28
2019-04-20T06:06:34.563Z,8.21
2019-04-20T06:09:06.844Z,8.32
2019-04-20T06:11:37.023Z,8.41
2019-04-20T06:13:54.310Z,8.51
2019-04-20T06:16:41.003Z,8.64
2019-04-20T06:19:18.845Z,8.75
2019-04-20T06:21:38.025Z,8.87
2019-04-20T06:24:26.437Z,8.66
2019-04-20T06:27:00.905Z,9.09
2019-04-20T06:29:22.532Z,9.20
2019-04-20T06:31:59.238Z,9.28
2019-04-20T06:37:02.106Z,9.52
2019-04-20T06:39:40.377Z,9.64
2019-04-20T06:44:34.356Z,9.85
2019-04-20T06:47:08.905Z,9.98
2019-04-20T06:49:36.660Z,10.12
2019-04-20T06:52:24.370Z,10.25
2019-04-20T06:54:56.508Z,10.35
2019-04-20T06:57:24.032Z,10.50
2019-04-20T07:00:05.801Z,10.66
2019-04-20T07:02:29.643Z,10.77
2019-04-20T07:04:57.529Z,10.93
2019-04-20T07:07:43.208Z,11.02
2019-04-20T07:12:27.354Z,11.32
2019-04-20T07:14:47.003Z,11.43
2019-04-20T07:17:43.814Z,11.55
2019-04-20T07:20:02.243Z,11.70
2019-04-20T07:22:46.220Z,11.81
2019-04-20T07:25:06.376Z,11.48
2019-04-20T07:27:41.474Z,12.00
2019-04-20T07:30:12.118Z,12.13
2019-04-20T07:32:49.832Z,12.30
2019-04-20T07:35:09.868Z,12.41
2019-04-20T07:40:15.176Z,12.71
2019-04-20T07:42:49.498Z,12.79
2019-04-20T07:45:21.669Z,13.14
2019-04-20T07:47:46.332Z,13.10
2019-04-20T07:50:08.693Z,13.20
2019-04-20T07:52:38.460Z,13.53
2019-04-20T07:57:41.954Z,13.58
2019-04-20T08:00:17.515Z,13.71
2019-04-20T08:03:12.182Z,14.01
2019-04-20T08:05:36.375Z,13.93
2019-04-20T08:08:14.892Z,14.02
2019-04-20T08:10:39.439Z,14.14
2019-04-20T08:13:26.934Z,14.25
2019-04-20T08:15:50.234Z,14.34
2019-04-20T08:18:21.342Z,14.47
2019-04-20T08:20:46.442Z,14.56
2019-04-20T08:23:20.290Z,14.68
2019-04-20T08:25:39.600Z,14.75
2019-04-20T08:28:06.398Z,14.83
2019-04-20T08:31:04.995Z,14.96
2019-04-20T08:33:42.651Z,15.06
2019-04-20T08:36:16.864Z,15.19
2019-04-20T08:39:08.358Z,15.33
2019-04-20T08:41:09.694Z,15.46
2019-04-20T08:43:53.871Z,15.60
2019-04-20T08:46:18.191Z,15.73
2019-04-20T08:48:46.805Z,15.89
2019-04-20T08:51:14.624Z,15.97
2019-04-20T08:53:46.552Z,16.05
2019-04-20T08:56:11.934Z,16.21
2019-04-20T08:58:27.271Z,16.35
2019-04-20T09:01:01.256Z,16.47
2019-04-20T09:03:31.675Z,16.63
2019-04-20T09:06:03.529Z,16.80
2019-04-20T09:08:36.709Z,17.01
2019-04-20T09:11:16.820Z,17.31
2019-04-20T09:13:34.299Z,17.89
2019-04-20T09:15:57.785Z,18.04
2019-04-20T09:18:49.400Z,18.37
2019-04-20T09:21:21.519Z,18.68
2019-04-20T09:24:00.170Z,19.17
2019-04-20T09:26:30.930Z,19.46
2019-04-20T09:28:54.383Z,19.85
2019-04-20T09:31:36.905Z,20.23
2019-04-20T09:34:07.452Z,20.47
2019-04-20T09:36:42.346Z,20.71
2019-04-20T09:39:25.664Z,20.46
2019-04-20T09:42:00.764Z,21.41
2019-04-20T09:44:24.576Z,21.80
2019-04-20T09:46:56.763Z,22.18
2019-04-20T09:49:35.303Z,22.48
2019-04-20T09:52:09.980Z,22.68
2019-04-20T09:54:43.719Z,23.10
2019-04-20T09:57:13.276Z,23.20
2019-04-20T09:59:48.218Z,24.20
2019-04-20T10:02:01.929Z,23.53
2019-04-20T10:04:24.056Z,23.67
2019-04-20T10:06:52.785Z,23.87
2019-04-20T10:09:27.917Z,24.21
2019-04-20T10:11:51.479Z,24.17
2019-04-20T10:14:20.110Z,24.31
2019-04-20T10:16:49.748Z,24.43
2019-04-20T10:19:24.863Z,24.48
2019-04-20T10:21:48.713Z,22.78
2019-04-20T10:24:17.179Z,24.75
2019-04-20T10:26:45.602Z,24.62
2019-04-20T10:29:15.430Z,24.47
2019-04-20T10:31:51.424Z,24.70
2019-04-20T10:34:15.680Z,24.47
2019-04-20T10:36:45.957Z,24.17
2019-04-20T10:39:14.192Z,24.40
2019-04-20T10:41:49.132Z,25.17
2019-04-20T10:44:12.858Z,24.38
2019-04-20T10:46:41.336Z,24.05
2019-04-20T10:49:11.088Z,24.24
2019-04-20T10:51:40.229Z,24.16
2019-04-20T10:54:08.840Z,24.11
2019-04-20T10:56:37.401Z,24.05
2019-04-20T10:59:05.882Z,24.06
2019-04-20T11:01:35.739Z,22.34
2019-04-20T11:04:04.866Z,24.19
2019-04-20T11:06:34.553Z,24.32
2019-04-20T11:09:04.695Z,24.04
2019-04-20T11:11:34.050Z,24.05
2019-04-20T11:14:08.276Z,24.04
2019-04-20T11:16:33.946Z,23.88
2019-04-20T11:19:03.253Z,23.61
2019-04-20T11:21:32.355Z,23.75
2019-04-20T11:24:00.934Z,23.91
2019-04-20T11:26:29.347Z,23.68
2019-04-20T11:28:58.056Z,23.50
2019-04-20T11:31:35.708Z,23.33
2019-04-20T11:33:56.318Z,23.79
2019-04-20T11:36:25.311Z,24.31
2019-04-20T11:38:54.407Z,23.79
2019-04-20T11:41:27.171Z,23.96
2019-04-20T11:43:53.847Z,24.17
2019-04-20T11:46:22.859Z,24.10
2019-04-20T11:48:51.867Z,24.37
2019-04-20T11:51:21.520Z,24.51
2019-04-20T11:53:50.224Z,24.86
2019-04-20T11:56:23.923Z,24.77
2019-04-20T11:58:49.162Z,24.83
2019-04-20T12:01:44.096Z,24.66
2019-04-20T12:04:18.735Z,24.68
2019-04-20T12:06:37.433Z,24.87
2019-04-20T12:09:10.679Z,24.93
2019-04-20T12:11:54.965Z,25.12
2019-04-20T12:14:10.410Z,25.48
2019-04-20T12:16:39.629Z,25.66
2019-04-20T12:19:08.571Z,25.55
2019-04-20T12:21:37.242Z,25.74
2019-04-20T12:24:06.774Z,25.76
2019-04-20T12:26:36.510Z,25.61
2019-04-20T12:29:05.706Z,25.72
2019-04-20T12:31:35.558Z,25.67
2019-04-20T12:34:04.523Z,25.83
2019-04-20T12:36:33.246Z,25.87
2019-04-20T12:39:03.314Z,25.76
2019-04-20T12:41:39.503Z,25.52
2019-04-20T12:44:03.753Z,25.19
2019-04-20T12:46:32.297Z,24.72
2019-04-20T12:49:01.849Z,24.62
2019-04-20T12:51:33.488Z,24.51
2019-04-20T12:54:00.575Z,24.17
2019-04-20T12:56:29.028Z,24.73
2019-04-20T12:58:57.832Z,23.95
2019-04-20T13:01:26.295Z,23.62
2019-04-20T13:03:55.343Z,23.70
2019-04-20T13:06:24.266Z,23.54
2019-04-20T13:08:55.931Z,23.71
2019-04-20T13:11:24.832Z,23.77
2019-04-20T13:14:22.095Z,23.79
2019-04-20T13:16:52.200Z,24.36
2019-04-20T13:19:21.408Z,23.68
2019-04-20T13:21:49.961Z,24.12
2019-04-20T13:24:18.830Z,23.59
2019-04-20T13:26:47.332Z,23.52
2019-04-20T13:29:17.036Z,23.81
2019-04-20T13:31:48.216Z,23.67
2019-04-20T13:34:17.225Z,23.77
2019-04-20T13:36:46.299Z,23.70
2019-04-20T13:39:16.437Z,23.47
2019-04-20T13:41:56.130Z,23.48
2019-04-20T13:44:15.686Z,23.84
2019-04-20T13:46:45.059Z,23.28
2019-04-20T13:49:13.465Z,23.21
2019-04-20T13:51:41.887Z,23.05
2019-04-20T13:54:15.107Z,22.96
2019-04-20T13:56:41.747Z,23.12
2019-04-20T13:59:27.879Z,23.14
2019-04-20T14:02:13.752Z,23.20
2019-04-20T14:04:46.223Z,23.46
2019-04-20T14:07:15.859Z,23.57
2019-04-20T14:09:45.596Z,23.85
2019-04-20T14:12:23.234Z,24.69
2019-04-20T14:14:43.727Z,24.39
2019-04-20T14:17:12.990Z,25.08
2019-04-20T14:19:41.492Z,24.46
2019-04-20T14:22:10.349Z,24.51
2019-04-20T14:24:39.049Z,24.57
2019-04-20T14:27:08.863Z,24.62
2019-04-20T14:29:37.324Z,24.65
2019-04-20T14:32:07.247Z,24.43
2019-04-20T14:34:36.859Z,24.17
2019-04-20T14:37:06.829Z,24.14
2019-04-20T14:39:36.455Z,24.09
2019-04-20T14:42:04.887Z,23.89
2019-04-20T14:44:34.011Z,23.78
2019-04-20T14:47:03.612Z,23.68
2019-04-20T14:49:32.666Z,23.66
2019-04-20T14:52:02.833Z,23.62
2019-04-20T14:54:31.895Z,23.43
2019-04-20T14:57:01.385Z,23.25
2019-04-20T14:59:31.762Z,23.19
2019-04-20T15:02:08.569Z,23.08
2019-04-20T15:04:37.273Z,23.08
2019-04-20T15:07:06.656Z,23.04
2019-04-20T15:09:38.730Z,23.04
2019-04-20T15:12:06.771Z,23.05
2019-04-20T15:14:38.568Z,23.11
2019-04-20T15:17:09.162Z,23.31
2019-04-20T15:19:39.142Z,23.34
2019-04-20T15:22:25.413Z,24.19
2019-04-20T15:24:55.623Z,23.88
2019-04-20T15:27:24.608Z,23.96
2019-04-20T15:29:54.021Z,24.72
2019-04-20T15:32:23.030Z,24.28
2019-04-20T15:34:51.525Z,24.30
2019-04-20T15:37:20.303Z,24.30
2019-04-20T15:39:48.868Z,24.27
2019-04-20T15:42:19.196Z,24.16
2019-04-20T15:44:49.065Z,24.25
2019-04-20T15:47:17.999Z,24.18
2019-04-20T15:49:46.489Z,24.10
2019-04-20T15:52:22.363Z,23.98
2019-04-20T15:54:45.543Z,23.97
2019-04-20T15:57:18.370Z,24.62
2019-04-20T15:59:44.490Z,24.07
2019-04-20T16:02:29.823Z,24.53
2019-04-20T16:05:00.591Z,23.75
2019-04-20T16:07:32.914Z,23.17
2019-04-20T16:09:59.320Z,22.84
2019-04-20T16:12:29.040Z,22.57
2019-04-20T16:14:57.729Z,22.63
2019-04-20T16:17:33.718Z,22.59
2019-04-20T16:20:02.926Z,22.55
2019-04-20T16:22:26.671Z,22.50
2019-04-20T16:24:56.795Z,22.95
2019-04-20T16:27:27.663Z,22.43
2019-04-20T16:29:57.675Z,22.25
2019-04-20T16:32:26.744Z,22.36
2019-04-20T16:34:56.138Z,22.28
2019-04-20T16:37:24.630Z,22.35
2019-04-20T16:39:54.420Z,22.38
2019-04-20T16:42:24.360Z,22.49
2019-04-20T16:44:53.560Z,22.49
2019-04-20T16:49:50.962Z,22.56
2019-04-20T16:52:19.355Z,22.67
2019-04-20T16:54:48.003Z,22.68
2019-04-20T16:57:17.264Z,22.62
2019-04-20T16:59:50.895Z,22.66
2019-04-20T17:02:17.761Z,22.64
2019-04-20T17:04:45.400Z,22.72
2019-04-20T17:07:16.545Z,23.19
2019-04-20T17:09:47.439Z,22.56
2019-04-20T17:12:17.594Z,22.41
2019-04-20T17:14:47.536Z,22.06
2019-04-20T17:17:16.053Z,22.05
2019-04-20T17:19:45.979Z,21.96
2019-04-20T17:22:14.555Z,21.88
2019-04-20T17:24:43.198Z,21.77
2019-04-20T17:27:30.733Z,21.75
2019-04-20T17:30:05.114Z,21.65
2019-04-20T17:32:35.368Z,21.41
2019-04-20T17:35:17.828Z,21.20
2019-04-20T17:37:39.975Z,21.19
2019-04-20T17:40:27.046Z,21.06
2019-04-20T17:42:49.688Z,21.36
2019-04-20T17:45:12.597Z,20.78
2019-04-20T17:47:52.888Z,21.00
2019-04-20T17:50:27.437Z,20.80
2019-04-20T17:52:55.176Z,20.02
2019-04-20T17:55:32.301Z,19.74
2019-04-20T17:58:01.717Z,19.40
2019-04-20T18:00:38.401Z,19.15
2019-04-20T18:03:24.494Z,18.88
2019-04-20T18:06:03.331Z,18.70
2019-04-20T18:08:30.013Z,18.54
2019-04-20T18:10:53.259Z,18.37
2019-04-20T18:13:17.797Z,18.19
2019-04-20T18:15:57.433Z,18.01
2019-04-20T18:18:41.660Z,17.78
2019-04-20T18:20:56.852Z,17.62
2019-04-20T18:23:33.513Z,17.35
2019-04-20T18:26:18.499Z,17.15
2019-04-20T18:28:54.820Z,16.98
2019-04-20T18:31:03.450Z,16.81
2019-04-20T18:33:33.531Z,16.62
2019-04-20T18:36:00.505Z,16.44
2019-04-20T18:38:30.579Z,16.25
2019-04-20T18:41:04.603Z,16.07
2019-04-20T18:43:31.353Z,15.91
2019-04-20T18:46:17.162Z,15.77
2019-04-20T18:48:48.360Z,15.61
2019-04-20T18:51:01.782Z,15.35
2019-04-20T18:53:38.792Z,15.35
2019-04-20T18:56:04.213Z,15.22
2019-04-20T18:58:31.345Z,15.06
2019-04-20T19:01:01.140Z,15.29
2019-04-20T19:03:35.691Z,14.85
2019-04-20T19:06:00.520Z,14.73
2019-04-20T19:08:37.798Z,14.58
2019-04-20T19:11:06.487Z,14.43
2019-04-20T19:13:47.337Z,14.31
2019-04-20T19:16:46.655Z,14.19
2019-04-20T19:19:14.029Z,14.08
2019-04-20T19:21:33.467Z,13.95
2019-04-20T19:24:07.730Z,13.84
2019-04-20T19:26:32.305Z,13.74
2019-04-20T19:29:12.024Z,13.66
2019-04-20T19:31:45.890Z,13.59
2019-04-20T19:34:19.032Z,13.49
2019-04-20T19:36:38.956Z,13.41
2019-04-20T19:39:19.434Z,13.37
2019-04-20T19:41:40.651Z,13.56
2019-04-20T19:44:14.780Z,13.29
2019-04-20T19:49:18.338Z,13.12
2019-04-20T19:51:55.666Z,13.10
2019-04-20T19:54:24.064Z,13.03
2019-04-20T19:56:48.560Z,12.96
2019-04-20T19:59:15.817Z,12.91
2019-04-20T20:01:33.734Z,12.86
2019-04-20T20:04:06.055Z,12.84
2019-04-20T20:06:39.105Z,12.75
2019-04-20T20:09:09.502Z,12.71
2019-04-20T20:11:39.193Z,12.62
2019-04-20T20:14:08.166Z,12.53
2019-04-20T20:16:56.266Z,12.45
2019-04-20T20:19:12.170Z,12.66
2019-04-20T20:21:54.462Z,12.32
2019-04-20T20:24:06.138Z,12.21
2019-04-20T20:26:40.646Z,12.12
2019-04-20T20:29:17.027Z,10.89
2019-04-20T20:31:54.121Z,11.93
2019-04-20T20:34:17.034Z,11.85
2019-04-20T20:36:43.723Z,11.76
2019-04-20T20:39:18.175Z,11.68
2019-04-20T20:41:53.144Z,11.58
2019-04-20T20:44:25.523Z,11.46
2019-04-20T20:46:52.153Z,11.32
2019-04-20T20:49:28.407Z,11.32
2019-04-20T20:52:02.475Z,11.25
2019-04-20T20:54:26.993Z,11.15
2019-04-20T20:56:52.731Z,11.12
2019-04-20T20:59:20.140Z,11.07
2019-04-20T21:01:50.296Z,11.04
2019-04-20T21:04:11.996Z,10.99
2019-04-20T21:06:40.455Z,10.93
2019-04-20T21:09:10.266Z,10.84
2019-04-20T21:11:38.112Z,10.80
2019-04-20T21:14:06.855Z,10.97
2019-04-20T21:16:42.522Z,10.67
2019-04-20T21:19:21.438Z,10.59
2019-04-20T21:21:47.446Z,10.52
2019-04-20T21:24:19.319Z,10.43
2019-04-20T21:26:47.713Z,10.40
2019-04-20T21:29:21.393Z,10.32
2019-04-20T21:31:57.043Z,10.20
2019-04-20T21:34:19.877Z,10.16
2019-04-20T21:36:47.274Z,10.09
2019-04-20T21:39:27.445Z,10.04
2019-04-20T21:41:50.923Z,9.95
2019-04-20T21:44:21.770Z,10.13
2019-04-20T21:46:51.127Z,9.81
2019-04-20T21:49:32.191Z,9.74
2019-04-20T21:51:54.819Z,9.64
2019-04-20T21:54:16.134Z,9.82
2019-04-20T21:56:53.137Z,9.09
2019-04-20T21:59:24.095Z,9.47
2019-04-20T22:01:55.134Z,9.41
2019-04-20T22:04:14.766Z,9.55
2019-04-20T22:06:44.501Z,9.25
2019-04-20T22:09:14.736Z,9.18
2019-04-20T22:11:44.185Z,9.12
2019-04-20T22:14:18.464Z,9.10
2019-04-20T22:16:49.396Z,9.04
2019-04-20T22:19:27.459Z,8.99
2019-04-20T22:21:53.436Z,8.91
2019-04-20T22:24:30.145Z,8.85
2019-04-20T22:26:54.853Z,8.83
2019-04-20T22:29:14.301Z,8.82
2019-04-20T22:31:45.194Z,8.76
2019-04-20T22:34:17.447Z,8.71
2019-04-20T22:36:46.687Z,8.65
2019-04-20T22:39:18.581Z,8.84
2019-04-20T22:41:53.620Z,8.58
2019-04-20T22:44:21.355Z,8.54
2019-04-20T22:46:50.066Z,8.48
2019-04-20T22:49:36.192Z,8.44
2019-04-20T22:51:58.243Z,8.39
2019-04-20T22:54:37.923Z,8.35
2019-04-20T22:57:02.394Z,8.30
2019-04-20T22:59:23.330Z,8.27
2019-04-20T23:01:55.262Z,8.22
2019-04-20T23:04:21.178Z,8.17
2019-04-20T23:06:51.864Z,8.16
2019-04-20T23:09:20.616Z,8.12
2019-04-20T23:11:49.470Z,8.10
2019-04-20T23:14:18.316Z,8.07
2019-04-20T23:16:50.620Z,8.01
2019-04-20T23:19:29.008Z,8.01
2019-04-20T23:21:55.732Z,7.96
2019-04-20T23:24:18.853Z,7.92
2019-04-20T23:26:49.048Z,7.87
2019-04-20T23:29:21.425Z,7.86
2019-04-20T23:31:55.001Z,7.80
2019-04-20T23:34:21.870Z,7.78
2019-04-20T23:36:50.318Z,7.75
2019-04-20T23:39:18.963Z,7.93
2019-04-20T23:41:52.490Z,7.74
2019-04-20T23:44:19.362Z,7.68
2019-04-20T23:47:10.921Z,7.63
2019-04-20T23:49:54.183Z,7.62
2019-04-20T23:52:32.277Z,7.52
2019-04-20T23:54:38.655Z,7.49
2019-04-20T23:57:06.057Z,7.50
2019-04-20T23:59:41.146Z,7.47
